createdAt,value
2022-12-17T00:00:41.446Z,8.10
2022-12-17T00:03:29.644Z,8.30
2022-12-17T00:06:15.294Z,8.70
2022-12-17T00:09:05.734Z,8.80
2022-12-17T00:11:54.446Z,8.90
2022-12-17T00:14:42.077Z,8.80
2022-12-17T00:17:27.576Z,7.70
2022-12-17T00:20:20.315Z,7.40
2022-12-17T00:23:05.862Z,7.70
2022-12-17T00:25:57.055Z,7.70
2022-12-17T00:28:48.675Z,8.00
2022-12-17T00:31:39.743Z,8.20
2022-12-17T00:34:28.493Z,8.60
2022-12-17T00:37:22.952Z,9.10
2022-12-17T00:40:08.307Z,9.40
2022-12-17T00:42:58.498Z,9.40
2022-12-17T00:45:51.102Z,9.30
2022-12-17T00:48:37.541Z,9.80
2022-12-17T00:51:28.550Z,9.40
2022-12-17T00:54:18.287Z,8.70
2022-12-17T00:57:05.804Z,8.90
2022-12-17T00:59:51.262Z,8.50
2022-12-17T01:02:38.003Z,8.30
2022-12-17T01:05:24.638Z,8.40
2022-12-17T01:08:15.157Z,8.40
2022-12-17T01:11:07.067Z,8.20
2022-12-17T01:13:53.100Z,8.60
2022-12-17T01:16:41.891Z,9.00
2022-12-17T01:19:30.123Z,9.20
2022-12-17T01:22:24.094Z,9.40
2022-12-17T01:25:22.995Z,9.60
2022-12-17T01:28:10.155Z,9.30
2022-12-17T01:30:56.448Z,9.50
2022-12-17T01:33:42.487Z,9.40
2022-12-17T01:36:29.116Z,9.10
2022-12-17T01:39:17.118Z,9.00
2022-12-17T01:42:03.137Z,9.10
2022-12-17T01:45:10.339Z,9.10
2022-12-17T01:48:04.125Z,9.40
2022-12-17T01:50:56.851Z,9.30
2022-12-17T01:53:46.127Z,9.30
2022-12-17T01:56:37.910Z,9.50
2022-12-17T01:59:34.132Z,9.80
2022-12-17T02:02:29.374Z,9.80
2022-12-17T02:05:21.345Z,10.00
2022-12-17T02:08:13.120Z,10.30
2022-12-17T02:11:10.427Z,10.40
2022-12-17T02:14:02.548Z,10.40
2022-12-17T02:16:56.726Z,10.20
2022-12-17T02:19:57.375Z,9.70
2022-12-17T02:23:04.619Z,9.00
2022-12-17T02:26:05.212Z,9.20
2022-12-17T02:29:00.178Z,9.00
2022-12-17T02:32:04.770Z,9.60
2022-12-17T02:35:04.402Z,9.70
2022-12-17T02:37:54.903Z,9.60
2022-12-17T02:40:48.801Z,9.30
2022-12-17T02:43:45.599Z,9.60
2022-12-17T02:46:33.172Z,9.40
2022-12-17T02:49:22.063Z,9.20
2022-12-17T02:52:15.694Z,9.10
2022-12-17T02:55:04.171Z,8.30
2022-12-17T02:57:55.188Z,8.40
2022-12-17T03:00:51.777Z,8.70
2022-12-17T03:03:38.655Z,8.80
2022-12-17T03:06:24.501Z,9.00
2022-12-17T03:09:18.763Z,9.20
2022-12-17T03:12:06.235Z,9.20
2022-12-17T03:15:15.437Z,9.20
2022-12-17T03:18:06.233Z,8.70
2022-12-17T03:20:58.921Z,7.90
2022-12-17T03:23:45.182Z,8.00
2022-12-17T03:26:42.234Z,8.20
2022-12-17T03:29:30.212Z,8.40
2022-12-17T03:32:16.186Z,8.70
2022-12-17T03:35:13.488Z,8.40
2022-12-17T03:38:02.341Z,8.00
2022-12-17T03:41:04.610Z,8.00
2022-12-17T03:43:53.199Z,8.30
2022-12-17T03:46:47.413Z,8.90
2022-12-17T03:49:47.588Z,9.50
2022-12-17T03:52:33.276Z,10.10
2022-12-17T03:55:27.140Z,10.40
2022-12-17T03:58:21.782Z,10.50
2022-12-17T04:01:09.818Z,10.50
2022-12-17T04:04:03.210Z,10.30
2022-12-17T04:06:50.707Z,10.30
2022-12-17T04:09:39.461Z,10.40
2022-12-17T04:12:34.132Z,10.00
2022-12-17T04:15:23.116Z,9.80
2022-12-17T04:18:09.298Z,9.30
2022-12-17T04:20:57.240Z,9.10
2022-12-17T04:23:57.332Z,9.00
2022-12-17T04:26:54.929Z,9.10
2022-12-17T04:29:54.366Z,9.20
2022-12-17T04:32:58.270Z,9.30
2022-12-17T04:35:46.827Z,9.00
2022-12-17T04:38:53.282Z,8.90
2022-12-17T04:41:45.234Z,9.40
2022-12-17T04:44:33.463Z,10.00
2022-12-17T04:47:20.223Z,10.00
2022-12-17T04:50:08.643Z,10.10
2022-12-17T04:52:59.772Z,10.20
2022-12-17T04:55:53.866Z,10.20
2022-12-17T04:58:41.877Z,10.40
2022-12-17T05:01:30.438Z,10.30
2022-12-17T05:04:31.872Z,10.10
2022-12-17T05:07:17.573Z,9.80
2022-12-17T05:10:03.237Z,9.50
2022-12-17T05:12:56.254Z,9.20
2022-12-17T05:15:48.337Z,9.10
2022-12-17T05:19:06.580Z,8.90
2022-12-17T05:21:53.206Z,8.70
2022-12-17T05:24:38.619Z,8.80
2022-12-17T05:27:26.630Z,8.30
2022-12-17T05:30:12.032Z,8.00
2022-12-17T05:32:58.268Z,8.40
2022-12-17T05:35:43.704Z,8.60
2022-12-17T05:38:30.352Z,8.60
2022-12-17T05:41:19.084Z,8.70
2022-12-17T05:44:04.615Z,8.30
2022-12-17T05:46:53.239Z,7.90
2022-12-17T05:49:47.861Z,7.90
2022-12-17T05:52:36.260Z,6.60
2022-12-17T05:55:28.989Z,6.50
2022-12-17T05:58:23.441Z,7.00
2022-12-17T06:01:21.724Z,7.10
2022-12-17T06:04:10.377Z,6.70
2022-12-17T06:06:58.749Z,7.20
2022-12-17T06:09:44.289Z,7.00
2022-12-17T06:12:40.629Z,5.80
2022-12-17T06:15:44.696Z,4.60
2022-12-17T06:18:30.194Z,4.80
2022-12-17T06:21:15.706Z,4.70
2022-12-17T06:24:17.410Z,4.10
2022-12-17T06:27:06.288Z,4.40
2022-12-17T06:29:58.892Z,5.20
2022-12-17T06:32:51.298Z,4.90
2022-12-17T06:35:42.406Z,4.80
2022-12-17T06:41:37.385Z,5.10
2022-12-17T06:44:28.563Z,5.50
2022-12-17T06:47:18.004Z,6.20
2022-12-17T06:50:03.492Z,6.90
2022-12-17T06:52:48.876Z,7.50
2022-12-17T06:55:39.142Z,8.10
2022-12-17T06:58:28.275Z,8.70
2022-12-17T07:01:16.628Z,9.20
2022-12-17T07:04:08.216Z,9.60
2022-12-17T07:06:56.903Z,9.60
2022-12-17T07:09:45.395Z,8.90
2022-12-17T07:12:47.190Z,9.20
2022-12-17T07:15:32.634Z,9.40
2022-12-17T07:18:21.632Z,9.50
2022-12-17T07:21:24.742Z,9.50
2022-12-17T07:24:20.535Z,9.80
2022-12-17T07:27:20.994Z,10.10
2022-12-17T07:30:12.873Z,9.70
2022-12-17T07:33:08.855Z,9.50
2022-12-17T07:35:54.387Z,8.90
2022-12-17T07:38:50.763Z,8.80
2022-12-17T07:41:36.899Z,7.30
2022-12-17T07:44:47.295Z,7.80
2022-12-17T07:50:52.329Z,8.80
2022-12-17T07:53:43.354Z,9.10
2022-12-17T07:56:33.241Z,9.20
2022-12-17T07:59:27.196Z,9.30
2022-12-17T08:02:15.905Z,9.30
2022-12-17T08:05:07.509Z,9.00
2022-12-17T08:08:01.404Z,9.60
2022-12-17T08:10:55.689Z,9.00
2022-12-17T08:13:42.430Z,8.00
2022-12-17T08:16:30.555Z,8.10
2022-12-17T08:22:36.367Z,7.70
2022-12-17T08:25:22.206Z,7.20
2022-12-17T08:28:48.543Z,6.20
2022-12-17T08:31:27.705Z,5.80
2022-12-17T08:34:18.834Z,6.40
2022-12-17T08:37:15.491Z,6.80
2022-12-17T08:40:03.149Z,6.60
2022-12-17T08:42:54.318Z,7.20
2022-12-17T08:45:39.990Z,7.70
2022-12-17T08:48:29.625Z,8.00
2022-12-17T08:51:20.368Z,8.20
2022-12-17T08:54:14.540Z,8.40
2022-12-17T08:57:12.098Z,8.70
2022-12-17T09:00:00.082Z,8.60
2022-12-17T09:02:45.725Z,8.70
2022-12-17T09:08:40.373Z,8.00
2022-12-17T09:11:25.802Z,8.50
2022-12-17T09:14:11.217Z,8.90
2022-12-17T09:16:59.345Z,9.30
2022-12-17T09:19:47.554Z,9.50
2022-12-17T09:22:36.808Z,9.20
2022-12-17T09:25:25.567Z,8.60
2022-12-17T09:28:11.042Z,9.00
2022-12-17T09:30:59.836Z,9.20
2022-12-17T09:33:45.166Z,8.60
2022-12-17T09:36:33.596Z,8.80
2022-12-17T09:39:20.394Z,9.00
2022-12-17T09:42:17.950Z,9.20
2022-12-17T09:45:09.405Z,9.00
2022-12-17T09:48:17.013Z,8.50
2022-12-17T09:51:06.398Z,8.80
2022-12-17T09:53:56.067Z,8.30
2022-12-17T09:56:52.911Z,6.40
2022-12-17T09:59:48.517Z,5.90
2022-12-17T10:02:38.668Z,5.50
2022-12-17T10:05:32.023Z,5.10
2022-12-17T10:08:18.009Z,5.30
2022-12-17T10:11:04.899Z,6.00
2022-12-17T10:13:51.365Z,6.70
2022-12-17T10:16:42.650Z,7.20
2022-12-17T10:19:38.979Z,7.50
2022-12-17T10:22:38.920Z,7.60
2022-12-17T10:25:26.144Z,7.90
2022-12-17T10:28:11.650Z,8.10
2022-12-17T10:31:14.852Z,7.00
2022-12-17T10:34:06.002Z,5.60
2022-12-17T10:36:51.669Z,5.90
2022-12-17T10:39:44.438Z,5.50
2022-12-17T10:42:40.032Z,5.20
2022-12-17T10:45:50.932Z,6.10
2022-12-17T10:48:42.764Z,7.10
2022-12-17T10:51:38.085Z,5.40
2022-12-17T10:54:45.407Z,5.00
2022-12-17T10:57:48.456Z,5.00
2022-12-17T11:00:47.567Z,5.40
2022-12-17T11:03:56.906Z,5.70
2022-12-17T11:06:48.142Z,5.80
2022-12-17T11:09:55.985Z,6.20
2022-12-17T11:15:57.759Z,6.20
2022-12-17T11:18:53.994Z,5.60
2022-12-17T11:21:43.090Z,5.10
2022-12-17T11:24:33.237Z,4.90
2022-12-17T11:27:26.309Z,3.90
2022-12-17T11:30:12.461Z,4.30
2022-12-17T11:33:19.027Z,4.90
2022-12-17T11:36:18.512Z,5.40
2022-12-17T11:39:10.013Z,5.10
2022-12-17T11:42:16.200Z,4.70
2022-12-17T11:45:15.167Z,4.60
2022-12-17T11:48:08.048Z,4.60
2022-12-17T11:51:08.679Z,5.00
2022-12-17T11:54:17.458Z,6.20
2022-12-17T11:57:06.089Z,7.00
2022-12-17T12:00:00.859Z,7.20
2022-12-17T12:03:16.227Z,6.40
2022-12-17T12:06:12.471Z,6.40
2022-12-17T12:09:25.226Z,6.20
2022-12-17T12:12:23.210Z,6.90
2022-12-17T12:15:22.919Z,7.30
2022-12-17T12:18:17.390Z,7.80
2022-12-17T12:21:20.411Z,8.60
2022-12-17T12:24:19.987Z,8.20
2022-12-17T12:27:13.632Z,7.30
2022-12-17T12:30:12.183Z,6.40
2022-12-17T12:33:10.763Z,6.30
2022-12-17T12:42:13.495Z,5.20
2022-12-17T12:45:19.634Z,4.80
2022-12-17T12:48:10.045Z,5.90
2022-12-17T12:51:09.129Z,6.20
2022-12-17T12:53:54.708Z,5.70
2022-12-17T12:56:50.553Z,5.30
2022-12-17T12:59:45.617Z,4.80
2022-12-17T13:02:47.139Z,4.30
2022-12-17T13:05:34.085Z,4.10
2022-12-17T13:08:26.818Z,5.00
2022-12-17T13:10:57.815Z,5.50
2022-12-17T13:13:36.973Z,5.30
2022-12-17T13:16:24.018Z,4.90
2022-12-17T13:19:03.220Z,4.50
2022-12-17T13:21:31.687Z,4.40
2022-12-17T13:24:01.386Z,4.90
2022-12-17T13:26:48.435Z,5.40
2022-12-17T13:29:31.695Z,5.20
2022-12-17T13:32:29.728Z,4.40
2022-12-17T13:35:12.286Z,3.80
2022-12-17T13:37:58.266Z,3.60
2022-12-17T13:40:40.201Z,3.60
2022-12-17T13:43:20.238Z,2.80
2022-12-17T13:45:52.144Z,2.40
2022-12-17T13:48:30.381Z,2.20
2022-12-17T13:51:13.393Z,2.20
2022-12-17T13:53:55.044Z,1.90
2022-12-17T13:56:30.946Z,1.90
2022-12-17T13:59:08.427Z,1.80
2022-12-17T14:01:54.722Z,1.50
2022-12-17T14:04:26.558Z,1.10
2022-12-17T14:06:59.860Z,1.10
2022-12-17T14:09:34.714Z,1.40
2022-12-17T14:12:21.968Z,1.40
2022-12-17T14:14:52.769Z,1.10
2022-12-17T14:17:28.834Z,1.00
2022-12-17T14:20:05.421Z,1.50
2022-12-17T14:22:36.280Z,2.30
2022-12-17T14:25:06.775Z,2.50
2022-12-17T14:27:37.312Z,3.00
2022-12-17T14:30:23.323Z,3.10
2022-12-17T14:32:54.129Z,4.00
2022-12-17T14:35:42.233Z,4.80
2022-12-17T14:38:36.968Z,5.50
2022-12-17T14:41:27.104Z,5.10
2022-12-17T14:44:03.055Z,4.60
2022-12-17T14:46:35.835Z,4.60
2022-12-17T14:49:07.642Z,5.00
2022-12-17T14:51:38.854Z,4.80
2022-12-17T14:54:22.118Z,4.40
2022-12-17T14:56:51.021Z,4.40
2022-12-17T14:59:32.941Z,4.60
2022-12-17T15:02:06.875Z,4.30
2022-12-17T15:04:36.879Z,3.70
2022-12-17T15:07:18.210Z,3.20
2022-12-17T15:09:46.286Z,3.30
2022-12-17T15:12:21.744Z,3.30
2022-12-17T15:14:49.865Z,2.90
2022-12-17T15:17:18.416Z,2.50
2022-12-17T15:19:56.246Z,2.40
2022-12-17T15:22:25.830Z,2.90
2022-12-17T15:24:55.798Z,3.30
2022-12-17T15:27:23.691Z,3.00
2022-12-17T15:30:07.671Z,2.70
2022-12-17T15:32:35.531Z,3.20
2022-12-17T15:35:13.732Z,3.40
2022-12-17T15:37:57.826Z,3.20
2022-12-17T15:40:30.875Z,2.90
2022-12-17T15:43:12.488Z,3.00
2022-12-17T15:45:42.185Z,3.20
2022-12-17T15:48:15.019Z,3.20
2022-12-17T15:50:43.189Z,2.90
2022-12-17T15:53:21.703Z,3.50
2022-12-17T15:56:08.296Z,3.50
2022-12-17T15:58:36.515Z,3.20
2022-12-17T16:01:07.565Z,2.80
2022-12-17T16:03:45.033Z,3.10
2022-12-17T16:06:14.251Z,4.00
2022-12-17T16:08:50.881Z,4.50
2022-12-17T16:11:27.960Z,4.20
2022-12-17T16:13:58.907Z,4.90
2022-12-17T16:16:32.676Z,5.40
2022-12-17T16:19:01.918Z,5.90
2022-12-17T16:21:30.131Z,4.80
2022-12-17T16:23:59.351Z,3.90
2022-12-17T16:26:27.602Z,4.00
2022-12-17T16:28:55.445Z,4.80
2022-12-17T16:31:26.795Z,5.30
2022-12-17T16:34:01.938Z,5.90
2022-12-17T16:36:29.838Z,6.80
2022-12-17T16:39:06.006Z,7.10
2022-12-17T16:41:36.608Z,6.90
2022-12-17T16:44:05.688Z,6.50
2022-12-17T16:46:35.474Z,5.00
2022-12-17T16:49:06.552Z,4.70
2022-12-17T16:51:34.699Z,5.10
2022-12-17T16:54:10.034Z,5.40
2022-12-17T16:56:45.150Z,5.10
2022-12-17T16:59:19.234Z,4.20
2022-12-17T17:01:51.457Z,4.20
2022-12-17T17:04:23.538Z,4.60
2022-12-17T17:06:53.796Z,5.00
2022-12-17T17:09:26.350Z,4.60
2022-12-17T17:11:56.836Z,4.20
2022-12-17T17:14:30.186Z,4.80
2022-12-17T17:17:00.838Z,5.30
2022-12-17T17:19:31.488Z,5.80
2022-12-17T17:21:59.329Z,6.10
2022-12-17T17:24:28.698Z,5.50
2022-12-17T17:26:59.431Z,4.70
2022-12-17T17:29:27.334Z,4.10
2022-12-17T17:32:14.214Z,3.70
2022-12-17T17:34:42.469Z,3.50
2022-12-17T17:37:22.666Z,3.40
2022-12-17T17:39:51.850Z,3.20
2022-12-17T17:42:25.608Z,3.80
2022-12-17T17:44:53.436Z,4.20
2022-12-17T17:47:30.023Z,4.70
2022-12-17T17:49:57.842Z,4.30
2022-12-17T17:52:25.702Z,4.50
2022-12-17T17:54:55.113Z,3.90
2022-12-17T17:57:26.037Z,4.30
2022-12-17T17:59:53.883Z,4.30
2022-12-17T18:02:21.831Z,4.50
2022-12-17T18:04:49.809Z,4.40
2022-12-17T18:07:32.761Z,4.70
2022-12-17T18:10:01.989Z,4.60
2022-12-17T18:12:53.784Z,5.20
2022-12-17T18:15:29.287Z,5.70
2022-12-17T18:18:02.145Z,5.60
2022-12-17T18:20:30.033Z,4.70
2022-12-17T18:22:57.880Z,4.80
2022-12-17T18:25:27.123Z,5.20
2022-12-17T18:27:55.321Z,5.30
2022-12-17T18:30:25.947Z,4.70
2022-12-17T18:33:12.668Z,4.10
2022-12-17T18:35:47.251Z,4.00
2022-12-17T18:38:21.078Z,4.50
2022-12-17T18:40:55.964Z,4.40
2022-12-17T18:43:32.479Z,3.80
2022-12-17T18:46:05.198Z,3.20
2022-12-17T18:48:41.108Z,2.90
2022-12-17T18:51:11.894Z,3.70
2022-12-17T18:53:39.789Z,4.40
2022-12-17T18:56:31.718Z,5.10
2022-12-17T18:59:16.483Z,5.80
2022-12-17T19:01:47.302Z,6.00
2022-12-17T19:04:17.690Z,6.30
2022-12-17T19:06:48.234Z,6.50
2022-12-17T19:09:21.548Z,6.10
2022-12-17T19:11:59.472Z,4.90
2022-12-17T19:14:30.373Z,5.00
2022-12-17T19:17:00.663Z,5.30
2022-12-17T19:19:38.425Z,5.20
2022-12-17T19:22:15.201Z,4.80
2022-12-17T19:24:48.998Z,5.40
2022-12-17T19:27:21.298Z,5.90
2022-12-17T19:30:01.230Z,5.80
2022-12-17T19:32:29.138Z,5.60
2022-12-17T19:34:59.131Z,5.80
2022-12-17T19:37:27.025Z,6.10
2022-12-17T19:39:54.898Z,6.10
2022-12-17T19:42:36.828Z,5.70
2022-12-17T19:45:09.113Z,5.10
2022-12-17T19:47:37.005Z,5.40
2022-12-17T19:50:11.172Z,5.80
2022-12-17T19:52:44.810Z,5.40
2022-12-17T19:55:12.695Z,4.60
2022-12-17T19:57:44.298Z,4.10
2022-12-17T20:00:13.189Z,4.50
2022-12-17T20:02:41.103Z,5.00
2022-12-17T20:05:09.986Z,4.50
2022-12-17T20:07:37.861Z,3.90
2022-12-17T20:10:08.744Z,3.70
2022-12-17T20:12:36.615Z,4.30
2022-12-17T20:15:09.665Z,4.60
2022-12-17T20:17:46.334Z,4.00
2022-12-17T20:20:20.002Z,4.20
2022-12-17T20:22:51.997Z,4.90
2022-12-17T20:25:22.891Z,5.50
2022-12-17T20:27:53.506Z,5.70
2022-12-17T20:30:33.472Z,6.00
2022-12-17T20:33:01.318Z,5.90
2022-12-17T20:35:35.232Z,5.90
2022-12-17T20:38:09.067Z,4.70
2022-12-17T20:40:40.442Z,4.30
2022-12-17T20:43:11.410Z,4.70
2022-12-17T20:45:49.811Z,4.90
2022-12-17T20:48:24.436Z,4.10
2022-12-17T20:50:55.400Z,3.50
2022-12-17T20:53:23.278Z,3.80
2022-12-17T20:56:01.454Z,4.20
2022-12-17T20:58:35.657Z,4.00
2022-12-17T21:01:06.857Z,3.40
2022-12-17T21:03:34.921Z,2.90
2022-12-17T21:06:17.246Z,3.30
2022-12-17T21:08:57.390Z,3.60
2022-12-17T21:11:28.395Z,3.10
2022-12-17T21:13:59.188Z,2.80
2022-12-17T21:16:39.086Z,3.70
2022-12-17T21:19:08.570Z,4.30
2022-12-17T21:21:39.736Z,3.30
2022-12-17T21:24:08.512Z,2.90
2022-12-17T21:26:41.592Z,3.30
2022-12-17T21:29:12.578Z,3.50
2022-12-17T21:31:43.327Z,3.30
2022-12-17T21:34:17.462Z,3.50
2022-12-17T21:36:45.936Z,3.70
2022-12-17T21:39:15.857Z,3.30
2022-12-17T21:42:20.161Z,2.70
2022-12-17T21:44:53.033Z,3.20
2022-12-17T21:47:22.518Z,3.70
2022-12-17T21:49:50.488Z,3.50
2022-12-17T21:52:18.349Z,3.00
2022-12-17T21:54:51.202Z,3.10
2022-12-17T21:57:21.536Z,3.70
2022-12-17T21:59:49.495Z,3.50
2022-12-17T22:02:23.320Z,3.20
2022-12-17T22:04:51.335Z,3.10
2022-12-17T22:07:21.698Z,3.70
2022-12-17T22:10:24.443Z,3.50
2022-12-17T22:13:01.186Z,2.50
2022-12-17T22:15:38.409Z,2.00
2022-12-17T22:18:19.192Z,2.80
2022-12-17T22:20:57.344Z,3.00
2022-12-17T22:23:40.226Z,2.70
2022-12-17T22:26:10.857Z,3.10
2022-12-17T22:28:39.192Z,3.70
2022-12-17T22:31:25.875Z,3.30
2022-12-17T22:34:35.766Z,3.00
2022-12-17T22:39:12.421Z,3.70
2022-12-17T22:44:28.919Z,4.00
2022-12-17T22:44:36.461Z,3.30
2022-12-17T22:45:39.488Z,4.00
2022-12-17T22:48:08.002Z,4.10
2022-12-17T22:50:46.706Z,3.40
2022-12-17T22:53:20.836Z,3.90
2022-12-17T22:55:49.267Z,3.80
2022-12-17T22:58:20.168Z,3.00
2022-12-17T23:00:55.528Z,2.70
2022-12-17T23:03:23.445Z,2.90
2022-12-17T23:06:06.906Z,3.00
2022-12-17T23:08:34.813Z,2.70
2022-12-17T23:11:07.701Z,2.60
2022-12-17T23:13:42.255Z,2.70
2022-12-17T23:16:14.282Z,2.10
2022-12-17T23:18:42.785Z,1.70
2022-12-17T23:21:24.787Z,2.50
2022-12-17T23:23:56.396Z,3.20
2022-12-17T23:26:26.834Z,3.10
2022-12-17T23:29:16.198Z,3.10
2022-12-17T23:31:50.056Z,3.80
2022-12-17T23:34:20.745Z,4.30
2022-12-17T23:36:50.162Z,4.60
2022-12-17T23:39:18.085Z,5.00
2022-12-17T23:41:51.855Z,5.30
2022-12-17T23:44:19.698Z,4.20
2022-12-17T23:46:53.850Z,3.80
2022-12-17T23:49:24.022Z,3.60
2022-12-17T23:52:08.165Z,2.90
2022-12-17T23:54:37.328Z,2.10
2022-12-17T23:57:08.048Z,2.50
2022-12-17T23:59:36.154Z,2.20
